Fville, New York
Current Conditions -  °F | °C
As of 4:54 PM on Monday 24 Nov 2014 (Local Time) from KSYR Reporting Station
Broken Clouds Broken Clouds  
Wind Chill: 68°   Ceiling: 9000
Heat Index: 68°   Visibility: 10mi
Dew Point: 50°   Wind: 16mph
Humidity: 52%   Direction: 190°S
Pressure: 29.37"   Gusts: 25mph
Location:  43.0351°N, 75.9986°W
Report Text: KSYR 242154Z 19014G22KT 10SM FEW065 BKN090 20/10 A2937 RMK AO2 PK WND 20030/2055 RAB00E26 SLP942 FEW V SCT P0000 T02000100
Loading
Personal Weather Stations






























Interactive Weather Map New forecast layout! Learn more

10-Day Weather Forecast

Advertisements
Track Severe Weather on mobile